Time;durP1;ratioP1;P1;durP2;ratioP2;P2;SDS_P1;SDS_P2;PMS_P1;PMS_P2;Temp;Humidity;BMP_temperature;BMP_pressure;BME280_temperature;BME280_humidity;BME280_pressure;Samples;Min_cycle;Max_cycle;Signal;HPM_P1;HPM_P2
2023/09/21 00:00:08;;;;;;;0.35;0.35;;;17.90;99.90;;;;;;5095402;28;20083;-74
2023/09/21 00:02:34;;;;;;;0.30;0.30;;;17.90;99.90;;;;;;5095718;28;20083;-74
2023/09/21 00:05:00;;;;;;;0.30;0.30;;;17.90;99.90;;;;;;5095470;28;20054;-75
2023/09/21 00:07:26;;;;;;;0.30;0.30;;;17.90;99.90;;;;;;5095280;28;20078;-77
2023/09/21 00:09:52;;;;;;;0.40;0.40;;;17.90;99.90;;;;;;5095964;28;20051;-75
2023/09/21 00:12:17;;;;;;;0.60;0.40;;;17.80;99.90;;;;;;5095372;28;20040;-76
2023/09/21 00:14:43;;;;;;;0.40;0.40;;;17.80;99.90;;;;;;5095468;28;20483;-73
2023/09/21 00:17:09;;;;;;;0.30;0.30;;;17.80;99.90;;;;;;5095453;28;20032;-77
2023/09/21 00:19:34;;;;;;;0.30;0.30;;;17.70;99.90;;;;;;5095196;28;20058;-74
2023/09/21 00:22:00;;;;;;;0.60;0.60;;;17.70;99.90;;;;;;5095037;28;20035;-75
2023/09/21 00:24:26;;;;;;;0.40;0.40;;;17.70;99.90;;;;;;5095078;28;20039;-76
2023/09/21 00:26:51;;;;;;;0.30;0.30;;;17.60;99.90;;;;;;5094913;28;20383;-76
2023/09/21 00:29:17;;;;;;;0.20;0.20;;;17.60;99.90;;;;;;5094882;28;20039;-75
2023/09/21 00:31:43;;;;;;;0.30;0.30;;;17.60;99.90;;;;;;5094517;28;20048;-73
2023/09/21 00:34:08;;;;;;;2.07;0.50;;;17.60;99.90;;;;;;5094873;28;20044;-77
2023/09/21 00:36:35;;;;;;;0.30;0.30;;;17.60;99.90;;;;;;5094842;28;20044;-76
2023/09/21 00:39:02;;;;;;;0.30;0.30;;;17.60;99.90;;;;;;5094834;28;20396;-75
2023/09/21 00:41:31;;;;;;;0.75;0.30;;;17.60;99.90;;;;;;5093952;28;20480;-74
2023/09/21 00:43:58;;;;;;;0.35;0.35;;;17.60;99.90;;;;;;5094229;28;20086;-76
2023/09/21 00:46:26;;;;;;;;;;;17.60;99.90;;;;;;5095220;28;20040;-75
2023/09/21 00:48:53;;;;;;;0.40;0.40;;;17.60;99.90;;;;;;5094651;28;19923;-74
2023/09/21 00:51:18;;;;;;;0.65;0.38;;;17.50;99.90;;;;;;5094307;28;20567;-77
2023/09/21 00:53:45;;;;;;;0.40;0.40;;;17.50;99.90;;;;;;5094424;28;20122;-73
2023/09/21 00:56:12;;;;;;;1.48;0.68;;;17.50;99.90;;;;;;5094462;28;20070;-75
2023/09/21 00:58:44;;;;;;;0.35;0.30;;;17.50;99.90;;;;;;5094480;28;20464;-75
2023/09/21 01:01:12;;;;;;;0.40;0.40;;;17.50;99.90;;;;;;5094416;28;20467;-74
2023/09/21 01:03:38;;;;;;;0.30;0.30;;;17.50;99.90;;;;;;5094304;28;20088;-76
2023/09/21 01:06:06;;;;;;;0.40;0.40;;;17.50;99.90;;;;;;5094290;28;20543;-73
2023/09/21 01:08:33;;;;;;;0.35;0.35;;;17.50;99.90;;;;;;5094195;28;20112;-72
2023/09/21 01:11:08;;;;;;;0.30;0.30;;;17.40;99.90;;;;;;5094167;28;20048;-76
2023/09/21 01:13:35;;;;;;;0.30;0.30;;;17.50;99.90;;;;;;5094198;28;20047;-74
2023/09/21 01:16:03;;;;;;;0.30;0.30;;;17.40;99.90;;;;;;5094104;28;20040;-74
2023/09/21 01:18:29;;;;;;;0.45;0.45;;;17.40;99.90;;;;;;5093959;28;20036;-73
2023/09/21 01:21:04;;;;;;;0.67;0.67;;;17.40;99.90;;;;;;5093958;28;20058;-74
2023/09/21 01:23:39;;;;;;;0.30;0.30;;;17.40;99.90;;;;;;5094063;28;20109;-73
2023/09/21 01:26:05;;;;;;;0.30;0.30;;;17.40;99.90;;;;;;5093924;28;20035;-73
2023/09/21 01:28:31;;;;;;;0.38;0.38;;;17.40;99.90;;;;;;5093882;28;20040;-74
2023/09/21 01:30:57;;;;;;;1.23;0.77;;;17.30;99.90;;;;;;5093816;28;20479;-75
2023/09/21 01:33:24;;;;;;;0.30;0.30;;;17.30;99.90;;;;;;5093942;28;20094;-72
2023/09/21 01:35:49;;;;;;;;;;;17.30;99.90;;;;;;5094252;28;20116;-72
2023/09/21 01:38:17;;;;;;;0.30;0.30;;;17.30;99.90;;;;;;5093794;28;19916;-74
2023/09/21 01:40:43;;;;;;;0.40;0.40;;;17.20;99.90;;;;;;5093610;28;20089;-73
2023/09/21 01:43:14;;;;;;;0.73;0.73;;;17.20;99.90;;;;;;5093769;28;20044;-73
2023/09/21 01:45:40;;;;;;;0.50;0.50;;;17.30;99.90;;;;;;5092900;28;20066;-75
2023/09/21 01:48:09;;;;;;;0.43;0.43;;;17.30;99.90;;;;;;5093786;28;20463;-72
2023/09/21 01:50:42;;;;;;;0.40;0.40;;;17.30;99.90;;;;;;5094026;28;20383;-72
2023/09/21 01:53:10;;;;;;;0.30;0.30;;;17.30;99.90;;;;;;5093988;28;20089;-74
2023/09/21 01:55:36;;;;;;;0.30;0.30;;;17.30;99.90;;;;;;5095440;28;20051;-74
2023/09/21 01:58:05;;;;;;;2.58;0.45;;;17.30;99.90;;;;;;5097945;28;20383;-72
2023/09/21 02:00:35;;;;;;;0.30;0.30;;;17.30;99.90;;;;;;5097789;28;20040;-74
2023/09/21 02:03:03;;;;;;;0.40;0.40;;;17.40;99.90;;;;;;5097686;28;20036;-72
2023/09/21 02:05:29;;;;;;;0.47;0.40;;;17.40;99.90;;;;;;5097777;28;20138;-74
2023/09/21 02:07:55;;;;;;;0.30;0.30;;;17.30;99.90;;;;;;5097654;28;20138;-72
2023/09/21 02:10:21;;;;;;;0.60;0.60;;;17.40;99.90;;;;;;5097649;28;20055;-75
2023/09/21 02:12:56;;;;;;;0.50;0.50;;;17.30;99.90;;;;;;5097478;28;20111;-73
2023/09/21 02:15:22;;;;;;;0.20;0.20;;;17.30;99.90;;;;;;5097559;28;20035;-74
2023/09/21 02:17:48;;;;;;;0.30;0.30;;;17.30;99.90;;;;;;5097553;28;20047;-76
2023/09/21 02:20:14;;;;;;;0.40;0.40;;;17.30;99.90;;;;;;5097377;28;20047;-73
2023/09/21 02:22:53;;;;;;;0.43;0.43;;;17.30;99.90;;;;;;5097451;28;20079;-72
2023/09/21 02:25:19;;;;;;;1.70;0.50;;;17.40;99.90;;;;;;5097123;28;20369;-73
2023/09/21 02:27:47;;;;;;;0.20;0.20;;;17.40;99.90;;;;;;5097973;28;20048;-72
2023/09/21 02:30:21;;;;;;;0.40;0.40;;;17.40;99.90;;;;;;5097303;28;20045;-72
2023/09/21 02:32:54;;;;;;;0.57;0.40;;;17.40;99.90;;;;;;5097273;28;20044;-74
2023/09/21 02:35:27;;;;;;;0.30;0.30;;;17.40;99.90;;;;;;5097303;28;20044;-72
2023/09/21 02:37:56;;;;;;;0.35;0.35;;;17.40;99.90;;;;;;5097214;28;20036;-73
2023/09/21 02:40:24;;;;;;;0.30;0.30;;;17.40;99.90;;;;;;5096929;28;20032;-73
2023/09/21 02:42:51;;;;;;;0.30;0.30;;;17.40;99.90;;;;;;5097256;28;20349;-73
2023/09/21 02:45:19;;;;;;;0.30;0.30;;;17.30;99.90;;;;;;5097036;28;20387;-75
2023/09/21 02:47:46;;;;;;;0.57;0.50;;;17.30;99.90;;;;;;5096898;28;20044;-71
2023/09/21 02:50:20;;;;;;;0.30;0.30;;;17.30;99.90;;;;;;5096912;28;20075;-73
2023/09/21 02:52:54;;;;;;;0.30;0.30;;;17.30;99.90;;;;;;5096882;28;20051;-74
2023/09/21 02:55:20;;;;;;;0.20;0.20;;;17.30;99.90;;;;;;5097180;28;20373;-72
2023/09/21 02:57:49;;;;;;;0.30;0.30;;;17.30;99.90;;;;;;5096744;28;20032;-74
2023/09/21 03:00:49;;;;;;;0.30;0.30;;;17.30;99.90;;;;;;5096734;28;20399;-74
2023/09/21 03:03:10;;;;;;;0.30;0.30;;;17.30;99.90;;;;;;5096784;28;20452;-74
2023/09/21 03:05:38;;;;;;;0.43;0.43;;;17.30;99.90;;;;;;5096391;28;20055;-74
2023/09/21 03:08:13;;;;;;;0.30;0.30;;;17.30;99.90;;;;;;5096286;28;20040;-73
2023/09/21 03:10:39;;;;;;;0.30;0.30;;;17.20;99.90;;;;;;5096642;28;20036;-73
2023/09/21 03:13:05;;;;;;;;;;;17.20;99.90;;;;;;5096677;28;20048;-74
2023/09/21 03:15:32;;;;;;;0.40;0.40;;;17.20;99.90;;;;;;5096361;28;20259;-71
2023/09/21 03:17:58;;;;;;;0.30;0.30;;;17.20;99.90;;;;;;5096344;28;20036;-73
2023/09/21 03:20:30;;;;;;;0.43;0.43;;;17.20;99.90;;;;;;5096218;28;20051;-73
2023/09/21 03:22:57;;;;;;;0.50;0.50;;;17.20;99.90;;;;;;5096517;28;20178;-75
2023/09/21 03:25:28;;;;;;;0.43;0.43;;;;;;;;;;5096043;28;20054;-74
2023/09/21 03:27:55;;;;;;;0.50;0.50;;;17.20;99.90;;;;;;5096058;28;20051;-74
2023/09/21 03:30:23;;;;;;;0.30;0.30;;;17.10;99.90;;;;;;5095851;28;20119;-75
2023/09/21 03:32:50;;;;;;;0.30;0.30;;;17.20;99.90;;;;;;5095892;28;20436;-72
2023/09/21 03:35:16;;;;;;;0.20;0.20;;;17.10;99.90;;;;;;5096042;28;20054;-74
2023/09/21 03:37:45;;;;;;;0.30;0.30;;;17.10;99.90;;;;;;5096046;28;20119;-72
2023/09/21 03:40:11;;;;;;;0.40;0.40;;;17.10;99.90;;;;;;5095859;28;20127;-75
2023/09/21 03:42:37;;;;;;;0.60;0.60;;;17.00;99.90;;;;;;5095921;28;20052;-73
2023/09/21 03:45:07;;;;;;;0.30;0.30;;;17.00;99.90;;;;;;5096233;28;20048;-72
2023/09/21 03:47:33;;;;;;;0.30;0.30;;;17.00;99.90;;;;;;5095711;28;20050;-74
2023/09/21 03:50:00;;;;;;;0.30;0.30;;;17.00;99.90;;;;;;5095803;28;20048;-78
2023/09/21 03:52:27;;;;;;;0.40;0.40;;;17.00;99.90;;;;;;5095741;28;20425;-73
2023/09/21 03:54:54;;;;;;;0.30;0.30;;;17.00;99.90;;;;;;5095609;28;20040;-72
2023/09/21 03:57:19;;;;;;;0.40;0.40;;;17.00;99.90;;;;;;5095507;28;20086;-74
2023/09/21 03:59:46;;;;;;;0.30;0.30;;;16.90;99.90;;;;;;5095543;28;20076;-73
2023/09/21 04:02:13;;;;;;;0.35;0.30;;;16.90;99.90;;;;;;5095622;28;20040;-72
2023/09/21 04:04:39;;;;;;;0.22;0.22;;;16.90;99.90;;;;;;5095412;28;20048;-75
2023/09/21 04:07:07;;;;;;;0.40;0.40;;;16.90;99.90;;;;;;5095370;28;20040;-72
2023/09/21 04:09:34;;;;;;;0.30;0.30;;;16.90;99.90;;;;;;5095275;28;20070;-74
2023/09/21 04:12:00;;;;;;;0.35;0.35;;;16.90;99.90;;;;;;5095181;28;20530;-76
2023/09/21 04:14:26;;;;;;;0.30;0.30;;;16.90;99.90;;;;;;5095229;28;20043;-76
2023/09/21 04:16:51;;;;;;;0.30;0.30;;;16.90;99.90;;;;;;5095215;28;20185;-75
2023/09/21 04:19:18;;;;;;;0.30;0.30;;;16.80;99.90;;;;;;5094482;28;20044;-73
2023/09/21 04:21:44;;;;;;;0.50;0.50;;;16.80;99.90;;;;;;5095049;28;20044;-76
2023/09/21 04:24:09;;;;;;;0.30;0.30;;;16.80;99.90;;;;;;5095092;28;20101;-72
2023/09/21 04:26:35;;;;;;;0.30;0.30;;;16.80;99.90;;;;;;5094919;28;20071;-75
2023/09/21 04:29:02;;;;;;;0.47;0.47;;;16.80;99.90;;;;;;5095045;28;20051;-74
2023/09/21 04:31:28;;;;;;;0.30;0.30;;;16.80;99.90;;;;;;5095384;28;20047;-75
2023/09/21 04:33:53;;;;;;;0.30;0.30;;;17.00;99.90;;;;;;5094822;28;20559;-74
2023/09/21 04:36:19;;;;;;;0.53;0.47;;;17.00;99.90;;;;;;5094866;28;20040;-75
2023/09/21 04:38:48;;;;;;;0.40;0.40;;;17.10;99.90;;;;;;5094781;28;20048;-73
2023/09/21 04:41:15;;;;;;;0.38;0.38;;;17.10;99.90;;;;;;5094617;28;20487;-75
2023/09/21 04:43:41;;;;;;;;;;;17.20;99.90;;;;;;5095093;28;20035;-73
2023/09/21 04:46:06;;;;;;;0.30;0.30;;;17.20;99.90;;;;;;5094658;28;20358;-76
2023/09/21 04:48:33;;;;;;;0.33;0.33;;;17.30;99.90;;;;;;5094636;28;20044;-74
2023/09/21 04:50:59;;;;;;;0.28;0.28;;;17.30;99.90;;;;;;5094563;28;20043;-76
2023/09/21 04:53:27;;;;;;;0.30;0.30;;;17.30;99.90;;;;;;5093366;28;20067;-76
2023/09/21 04:55:52;;;;;;;0.40;0.40;;;17.30;99.90;;;;;;5093775;28;20512;-74
2023/09/21 04:58:20;;;;;;;0.40;0.40;;;17.30;99.90;;;;;;5094235;28;20123;-73
2023/09/21 05:00:46;;;;;;;0.30;0.30;;;17.30;99.90;;;;;;5094346;28;20040;-75
2023/09/21 05:03:11;;;;;;;0.30;0.30;;;17.40;99.90;;;;;;5094624;28;20036;-73
2023/09/21 05:05:37;;;;;;;0.40;0.40;;;17.40;99.90;;;;;;5094341;28;20036;-74
2023/09/21 05:08:03;;;;;;;0.30;0.30;;;17.50;99.90;;;;;;5093843;28;20100;-74
2023/09/21 05:10:30;;;;;;;0.30;0.30;;;17.50;99.90;;;;;;5094177;28;20040;-73
2023/09/21 05:12:57;;;;;;;0.30;0.30;;;17.40;99.90;;;;;;5094253;28;20376;-74
2023/09/21 05:15:24;;;;;;;0.60;0.55;;;17.40;99.90;;;;;;5094546;28;20432;-72
2023/09/21 05:17:49;;;;;;;0.40;0.40;;;17.30;99.90;;;;;;5094219;28;20047;-72
2023/09/21 05:20:16;;;;;;;1.03;0.33;;;17.20;99.90;;;;;;5110182;28;20127;-71
2023/09/21 05:22:42;;;;;;;0.30;0.30;;;17.10;99.90;;;;;;5094045;28;20078;-71
2023/09/21 05:25:09;;;;;;;0.47;0.47;;;17.10;99.90;;;;;;5094092;28;20040;-72
2023/09/21 05:27:36;;;;;;;0.30;0.30;;;17.00;99.90;;;;;;5093942;28;20056;-73
2023/09/21 05:30:04;;;;;;;;;;;17.00;99.90;;;;;;5093526;28;20425;-72
2023/09/21 05:32:32;;;;;;;0.30;0.30;;;16.90;99.90;;;;;;5093968;28;20351;-72
2023/09/21 05:34:58;;;;;;;0.20;0.20;;;16.90;99.90;;;;;;5092796;28;20043;-72
2023/09/21 05:37:24;;;;;;;0.30;0.30;;;16.80;99.90;;;;;;5093707;28;20036;-74
2023/09/21 05:39:49;;;;;;;0.40;0.40;;;16.80;99.90;;;;;;5093744;28;20036;-74
2023/09/21 05:42:15;;;;;;;0.30;0.30;;;16.80;99.90;;;;;;5093776;28;20484;-71
2023/09/21 05:44:42;;;;;;;0.40;0.40;;;16.80;99.90;;;;;;5093855;28;20036;-73
2023/09/21 05:47:08;;;;;;;0.35;0.35;;;16.80;99.90;;;;;;5093726;28;20776;-75
2023/09/21 05:49:36;;;;;;;0.30;0.30;;;16.80;99.90;;;;;;5093795;28;20040;-72
2023/09/21 05:52:03;;;;;;;0.40;0.40;;;16.80;99.90;;;;;;5093243;28;20071;-71
2023/09/21 05:54:29;;;;;;;0.40;0.40;;;16.80;99.90;;;;;;5093367;28;20044;-73
2023/09/21 05:56:55;;;;;;;0.20;0.20;;;16.80;99.90;;;;;;5093616;28;20043;-72
2023/09/21 05:59:22;;;;;;;0.30;0.30;;;16.90;99.90;;;;;;5094184;28;20044;-75
2023/09/21 06:01:48;;;;;;;0.40;0.40;;;17.00;99.90;;;;;;5093649;28;20036;-75
2023/09/21 06:04:16;;;;;;;0.45;0.45;;;17.10;99.90;;;;;;5093664;28;20040;-72
2023/09/21 06:06:43;;;;;;;0.38;0.32;;;17.30;99.90;;;;;;5093346;28;20036;-76
2023/09/21 06:09:10;;;;;;;;;;;17.40;99.90;;;;;;5093813;28;20490;-73
2023/09/21 06:11:36;;;;;;;0.30;0.30;;;17.50;99.90;;;;;;5093564;28;19923;-74
2023/09/21 06:14:02;;;;;;;0.43;0.43;;;17.60;99.90;;;;;;5093540;28;20040;-73
2023/09/21 06:16:29;;;;;;;0.30;0.30;;;17.70;99.90;;;;;;5093337;28;20079;-74
2023/09/21 06:18:55;;;;;;;0.30;0.30;;;17.80;99.90;;;;;;5093498;28;20051;-73
2023/09/21 06:21:20;;;;;;;0.50;0.50;;;17.90;99.90;;;;;;5093451;28;20044;-73
2023/09/21 06:23:49;;;;;;;0.43;0.43;;;18.00;99.90;;;;;;5093236;28;20464;-71
2023/09/21 06:26:15;;;;;;;0.30;0.30;;;18.00;99.90;;;;;;5093344;28;20040;-76
2023/09/21 06:28:46;;;;;;;0.30;0.30;;;18.10;99.90;;;;;;5093390;28;20129;-76
2023/09/21 06:31:13;;;;;;;0.30;0.30;;;18.20;99.90;;;;;;5093591;28;20274;-75
2023/09/21 06:33:42;;;;;;;0.68;0.57;;;18.20;99.90;;;;;;5093469;28;20076;-76
2023/09/21 06:36:15;;;;;;;0.30;0.30;;;18.30;99.90;;;;;;5093236;28;20046;-75
2023/09/21 06:38:42;;;;;;;0.20;0.20;;;18.40;99.90;;;;;;5093668;28;20040;-74
2023/09/21 06:41:09;;;;;;;0.20;0.20;;;18.50;99.90;;;;;;5094161;28;20119;-75
2023/09/21 06:43:36;;;;;;;0.38;0.38;;;18.60;99.90;;;;;;5097318;28;20079;-75
2023/09/21 06:46:02;;;;;;;0.30;0.30;;;18.60;99.90;;;;;;5097009;28;20032;-76
2023/09/21 06:48:27;;;;;;;0.40;0.40;;;18.70;99.90;;;;;;5097085;28;20046;-75
2023/09/21 06:50:53;;;;;;;0.30;0.30;;;18.80;99.90;;;;;;5096777;28;20123;-74
2023/09/21 06:53:19;;;;;;;0.43;0.43;;;18.80;99.90;;;;;;5097313;28;20036;-73
2023/09/21 06:55:44;;;;;;;0.40;0.40;;;18.90;99.90;;;;;;5095977;28;20040;-73
2023/09/21 06:58:10;;;;;;;0.30;0.30;;;18.90;99.90;;;;;;5095286;28;20048;-73
2023/09/21 07:00:37;;;;;;;1.13;0.40;;;18.90;99.90;;;;;;5096344;28;20353;-72
2023/09/21 07:03:03;;;;;;;0.20;0.20;;;18.90;99.90;;;;;;5096400;28;20392;-73
2023/09/21 07:05:29;;;;;;;0.77;0.50;;;19.00;99.90;;;;;;5096129;28;20127;-74
2023/09/21 07:07:54;;;;;;;0.40;0.40;;;19.00;99.90;;;;;;5096483;28;20286;-73
2023/09/21 07:10:20;;;;;;;0.30;0.30;;;19.10;99.90;;;;;;5096342;28;20058;-73
2023/09/21 07:12:46;;;;;;;0.30;0.30;;;19.10;99.90;;;;;;5096725;28;20047;-73
2023/09/21 07:15:12;;;;;;;0.30;0.30;;;19.20;99.90;;;;;;5096347;28;20460;-78
2023/09/21 07:17:37;;;;;;;0.30;0.30;;;19.20;99.90;;;;;;5095222;28;20036;-72
2023/09/21 07:20:07;;;;;;;0.40;0.40;;;19.20;99.90;;;;;;5095803;28;20293;-72
2023/09/21 07:22:33;;;;;;;0.30;0.30;;;19.20;99.90;;;;;;5095005;28;20063;-72
2023/09/21 07:24:59;;;;;;;0.30;0.30;;;19.40;99.90;;;;;;5095972;28;20044;-73
2023/09/21 07:27:25;;;;;;;0.30;0.30;;;19.40;99.90;;;;;;5096431;28;20135;-73
2023/09/21 07:29:55;;;;;;;0.80;0.43;;;19.40;99.90;;;;;;5095847;28;20193;-72
2023/09/21 07:32:21;;;;;;;0.82;0.50;;;19.50;99.90;;;;;;5095735;28;20117;-72
2023/09/21 07:34:50;;;;;;;0.30;0.30;;;19.40;99.90;;;;;;5095845;28;20456;-72
2023/09/21 07:37:16;;;;;;;0.43;0.43;;;19.50;99.90;;;;;;5095876;28;20043;-72
2023/09/21 07:39:42;;;;;;;0.30;0.30;;;19.40;99.90;;;;;;5095544;28;20044;-73
2023/09/21 07:42:08;;;;;;;0.30;0.30;;;19.40;99.90;;;;;;5095792;28;20353;-74
2023/09/21 07:44:33;;;;;;;0.30;0.30;;;19.40;99.90;;;;;;5095530;28;20135;-73
2023/09/21 07:46:59;;;;;;;0.33;0.30;;;19.40;99.90;;;;;;5095264;28;20040;-72
2023/09/21 07:49:25;;;;;;;0.30;0.30;;;19.50;99.90;;;;;;5095499;28;20040;-72
2023/09/21 07:51:56;;;;;;;0.30;0.30;;;19.40;99.90;;;;;;5095798;28;20094;-70
2023/09/21 07:54:22;;;;;;;0.30;0.30;;;19.40;99.90;;;;;;5094713;28;20490;-75
2023/09/21 07:56:48;;;;;;;0.33;0.33;;;19.50;99.90;;;;;;5095422;28;20036;-73
2023/09/21 07:59:15;;;;;;;0.35;0.35;;;19.50;99.90;;;;;;5095458;28;20047;-72
2023/09/21 08:01:41;;;;;;;0.45;0.38;;;19.60;99.90;;;;;;5095135;28;20036;-73
2023/09/21 08:04:07;;;;;;;0.43;0.30;;;19.70;99.90;;;;;;5094980;28;20051;-76
2023/09/21 08:06:33;;;;;;;0.30;0.30;;;19.80;99.90;;;;;;5095274;28;20043;-72
2023/09/21 08:08:59;;;;;;;0.30;0.30;;;19.90;99.90;;;;;;5095196;28;20044;-74
2023/09/21 08:11:25;;;;;;;0.40;0.40;;;19.90;99.90;;;;;;5095216;28;20055;-75
2023/09/21 08:13:50;;;;;;;0.30;0.30;;;20.00;99.90;;;;;;5095167;28;20036;-74
2023/09/21 08:16:16;;;;;;;0.40;0.40;;;20.00;99.90;;;;;;5094936;28;20622;-75
2023/09/21 08:18:42;;;;;;;0.20;0.20;;;20.00;99.90;;;;;;5094771;28;20075;-75
2023/09/21 08:21:09;;;;;;;0.40;0.33;;;20.00;99.90;;;;;;5094921;28;20032;-73
2023/09/21 08:23:36;;;;;;;0.40;0.40;;;20.00;99.90;;;;;;5094811;28;20040;-73
2023/09/21 08:26:02;;;;;;;0.63;0.63;;;20.00;99.90;;;;;;5094539;28;20040;-73
2023/09/21 08:28:29;;;;;;;0.30;0.30;;;20.00;99.90;;;;;;5094985;28;20047;-76
2023/09/21 08:30:55;;;;;;;0.50;0.50;;;20.00;99.90;;;;;;5094517;28;20368;-73
2023/09/21 08:33:22;;;;;;;0.30;0.30;;;20.00;99.90;;;;;;5094842;28;20090;-73
2023/09/21 08:35:48;;;;;;;0.38;0.38;;;20.00;99.90;;;;;;5094547;28;20119;-74
2023/09/21 08:38:13;;;;;;;0.73;0.55;;;20.00;99.90;;;;;;5094677;28;20047;-75
2023/09/21 08:40:43;;;;;;;0.40;0.40;;;20.00;99.90;;;;;;5094598;28;20040;-72
2023/09/21 08:43:14;;;;;;;0.32;0.32;;;20.00;99.90;;;;;;5094300;28;20044;-73
2023/09/21 08:45:40;;;;;;;0.43;0.43;;;20.00;99.90;;;;;;5094669;28;20040;-74
2023/09/21 08:48:08;;;;;;;0.20;0.20;;;20.00;99.90;;;;;;5094371;28;20126;-76
2023/09/21 08:50:36;;;;;;;0.20;0.20;;;20.00;99.90;;;;;;5094496;28;20048;-73
2023/09/21 08:53:03;;;;;;;0.40;0.40;;;20.00;99.90;;;;;;5094459;28;20071;-74
2023/09/21 08:55:30;;;;;;;0.40;0.40;;;19.90;99.90;;;;;;5094198;28;20514;-75
2023/09/21 08:57:56;;;;;;;0.30;0.30;;;19.90;99.90;;;;;;5094385;28;20093;-76
2023/09/21 09:00:27;;;;;;;0.60;0.50;;;19.90;99.90;;;;;;5094108;28;20040;-75
2023/09/21 09:02:54;;;;;;;0.68;0.55;;;19.90;99.90;;;;;;5094310;28;20048;-72
2023/09/21 09:05:19;;;;;;;0.30;0.30;;;19.80;99.90;;;;;;5093985;28;20047;-75
2023/09/21 09:07:45;;;;;;;0.30;0.30;;;19.80;99.90;;;;;;5094086;28;20028;-72
2023/09/21 09:10:12;;;;;;;1.13;0.53;;;19.80;99.90;;;;;;5094259;28;20530;-72
2023/09/21 09:12:39;;;;;;;0.20;0.20;;;19.80;99.90;;;;;;5093710;28;20036;-71
2023/09/21 09:15:06;;;;;;;0.35;0.35;;;19.60;99.90;;;;;;5093954;28;20044;-72
2023/09/21 09:17:32;;;;;;;0.45;0.38;;;19.60;99.90;;;;;;5094059;28;20036;-73
2023/09/21 09:20:02;;;;;;;0.30;0.30;;;19.50;99.90;;;;;;5094105;28;20117;-72
2023/09/21 09:22:31;;;;;;;0.30;0.30;;;19.50;99.90;;;;;;5092654;28;20075;-73
2023/09/21 09:25:04;;;;;;;0.30;0.30;;;19.40;99.90;;;;;;5093941;28;20046;-74
2023/09/21 09:27:31;;;;;;;1.65;0.50;;;19.40;99.90;;;;;;5093376;28;20038;-73
2023/09/21 09:29:57;;;;;;;0.20;0.20;;;19.30;99.90;;;;;;5093852;28;20047;-72
2023/09/21 09:32:24;;;;;;;0.50;0.50;;;19.30;99.90;;;;;;5093691;28;20089;-72
2023/09/21 09:34:49;;;;;;;0.30;0.30;;;19.20;99.90;;;;;;5093759;28;20044;-73
2023/09/21 09:37:16;;;;;;;0.23;0.23;;;19.20;99.90;;;;;;5093779;28;20039;-73
2023/09/21 09:39:45;;;;;;;0.35;0.30;;;19.10;99.90;;;;;;5093750;28;20072;-76
2023/09/21 09:42:14;;;;;;;0.40;0.40;;;19.00;99.90;;;;;;5093273;28;20039;-73
2023/09/21 09:44:48;;;;;;;0.40;0.30;;;19.00;99.90;;;;;;5093530;28;20129;-74
2023/09/21 09:47:18;;;;;;;0.40;0.40;;;18.90;99.90;;;;;;5093337;28;20169;-76
2023/09/21 09:49:47;;;;;;;0.47;0.40;;;18.90;99.90;;;;;;5093568;28;20040;-74
2023/09/21 09:52:18;;;;;;;0.30;0.30;;;18.80;99.90;;;;;;5093517;28;20048;-74
2023/09/21 09:54:46;;;;;;;0.65;0.35;;;18.80;99.90;;;;;;5093523;28;20051;-72
2023/09/21 09:57:13;;;;;;;0.30;0.30;;;18.70;99.90;;;;;;5093320;28;20478;-75
2023/09/21 09:59:41;;;;;;;0.30;0.30;;;18.70;99.90;;;;;;5093654;28;20085;-73
2023/09/21 10:02:13;;;;;;;0.38;0.38;;;18.70;99.90;;;;;;5093366;28;20058;-75
2023/09/21 10:04:40;;;;;;;0.30;0.30;;;18.70;99.90;;;;;;5093322;28;20491;-73
2023/09/21 10:07:06;;;;;;;;;;;18.80;99.90;;;;;;5093798;28;20044;-74
2023/09/21 10:09:32;;;;;;;0.30;0.30;;;18.80;99.90;;;;;;5092915;28;19920;-76
2023/09/21 10:12:00;;;;;;;0.40;0.40;;;18.70;99.90;;;;;;5093296;28;20040;-75
2023/09/21 10:14:25;;;;;;;0.35;0.35;;;18.70;99.90;;;;;;5093778;28;20070;-75
2023/09/21 10:16:55;;;;;;;0.60;0.60;;;18.70;99.90;;;;;;5096721;28;20452;-74
2023/09/21 10:19:26;;;;;;;0.30;0.30;;;18.70;99.90;;;;;;5097415;28;20126;-75
2023/09/21 10:21:59;;;;;;;0.28;0.28;;;18.60;99.90;;;;;;5097190;28;20035;-75
2023/09/21 10:24:29;;;;;;;0.32;0.32;;;18.50;99.90;;;;;;5097360;28;20040;-76
2023/09/21 10:27:01;;;;;;;0.40;0.40;;;18.60;99.90;;;;;;5095536;28;20503;-74
2023/09/21 10:29:32;;;;;;;0.38;0.38;;;18.50;99.90;;;;;;5097122;28;20059;-76
2023/09/21 10:32:01;;;;;;;0.35;0.35;;;18.50;99.90;;;;;;5097758;28;20051;-76
2023/09/21 10:34:29;;;;;;;0.30;0.30;;;18.40;99.90;;;;;;5096958;28;20093;-74
2023/09/21 10:37:00;;;;;;;0.40;0.40;;;18.50;99.90;;;;;;5096798;28;20071;-74
2023/09/21 10:39:28;;;;;;;0.50;0.50;;;18.50;99.90;;;;;;5097106;28;20032;-75
2023/09/21 10:42:08;;;;;;;0.40;0.40;;;18.50;99.90;;;;;;5096884;28;20063;-71
2023/09/21 10:44:53;;;;;;;0.35;0.35;;;18.50;99.90;;;;;;5096590;28;20094;-72
2023/09/21 10:47:47;;;;;;;1.33;0.77;;;18.40;99.90;;;;;;5096466;28;20052;-74
2023/09/21 10:50:20;;;;;;;0.43;0.43;;;18.40;99.90;;;;;;5092706;28;20059;-73
2023/09/21 10:52:48;;;;;;;0.30;0.30;;;18.40;99.90;;;;;;5096494;28;20482;-73
2023/09/21 10:55:16;;;;;;;0.30;0.30;;;18.50;99.90;;;;;;5096509;28;20040;-73
2023/09/21 10:57:42;;;;;;;0.30;0.30;;;18.50;99.90;;;;;;5096108;28;20468;-72
2023/09/21 11:00:16;;;;;;;0.60;0.50;;;18.50;99.90;;;;;;5096537;28;20040;-72
2023/09/21 11:02:44;;;;;;;0.30;0.30;;;18.60;99.90;;;;;;5096505;28;20044;-73
2023/09/21 11:05:11;;;;;;;0.30;0.30;;;18.60;99.90;;;;;;5096510;28;20122;-76
2023/09/21 11:07:40;;;;;;;0.30;0.30;;;18.60;99.90;;;;;;5096451;28;20040;-74
2023/09/21 11:10:07;;;;;;;0.35;0.35;;;18.60;99.90;;;;;;5095653;28;20060;-74
2023/09/21 11:12:34;;;;;;;0.30;0.30;;;18.80;99.90;;;;;;5096306;28;20035;-74
2023/09/21 11:15:00;;;;;;;0.32;0.32;;;18.70;99.90;;;;;;5096389;28;20111;-74
2023/09/21 11:17:28;;;;;;;0.30;0.30;;;18.80;99.90;;;;;;5096283;28;20474;-74
2023/09/21 11:19:54;;;;;;;0.20;0.20;;;18.80;99.90;;;;;;5096414;28;20044;-75
2023/09/21 11:22:20;;;;;;;0.30;0.30;;;18.90;99.90;;;;;;5096441;28;20058;-74
2023/09/21 11:24:46;;;;;;;0.30;0.30;;;18.90;99.90;;;;;;5095535;28;20043;-74
2023/09/21 11:27:14;;;;;;;0.40;0.40;;;18.90;99.90;;;;;;5096130;28;20032;-74
2023/09/21 11:29:42;;;;;;;0.20;0.20;;;18.90;99.90;;;;;;5096221;28;20124;-74
2023/09/21 11:32:10;;;;;;;0.30;0.30;;;18.90;99.90;;;;;;5096238;28;20048;-75
2023/09/21 11:34:39;;;;;;;0.70;0.50;;;18.90;99.90;;;;;;5095804;28;20544;-74
2023/09/21 11:37:09;;;;;;;0.40;0.40;;;18.90;99.90;;;;;;5096043;28;20141;-74
2023/09/21 11:39:36;;;;;;;0.22;0.22;;;18.90;99.90;;;;;;5095513;28;20052;-74
2023/09/21 11:42:03;;;;;;;;;;;18.90;99.90;;;;;;5096098;28;20036;-74
2023/09/21 11:44:29;;;;;;;0.20;0.20;;;18.90;99.90;;;;;;5095792;28;19920;-74
2023/09/21 11:46:57;;;;;;;0.57;0.50;;;18.90;99.90;;;;;;5095600;28;20085;-74
2023/09/21 11:49:37;;;;;;;0.40;0.40;;;18.80;99.90;;;;;;5095414;28;20065;-74
2023/09/21 11:52:03;;;;;;;0.30;0.30;;;18.80;99.90;;;;;;5095358;28;20043;-74
2023/09/21 11:54:34;;;;;;;0.30;0.30;;;18.70;99.90;;;;;;5093474;28;20593;-74
2023/09/21 11:57:00;;;;;;;0.40;0.40;;;18.60;99.90;;;;;;5095203;28;20475;-75
2023/09/21 11:59:26;;;;;;;0.30;0.30;;;18.60;99.90;;;;;;5095548;28;20039;-73
2023/09/21 12:01:54;;;;;;;0.30;0.30;;;18.60;99.90;;;;;;5095175;28;20024;-73
2023/09/21 12:04:23;;;;;;;0.30;0.30;;;18.60;99.90;;;;;;5094694;28;20136;-73
2023/09/21 12:06:48;;;;;;;;;;;18.70;99.90;;;;;;5096245;28;20040;-72
2023/09/21 12:09:14;;;;;;;0.45;0.43;;;18.80;99.90;;;;;;5095087;28;19916;-72
2023/09/21 12:11:40;;;;;;;0.22;0.22;;;18.90;99.90;;;;;;5095270;28;20036;-74
2023/09/21 12:14:05;;;;;;;0.20;0.20;;;19.00;99.90;;;;;;5095069;28;20040;-73
2023/09/21 12:16:31;;;;;;;0.40;0.40;;;19.10;99.90;;;;;;5095052;28;20119;-72
2023/09/21 12:19:00;;;;;;;0.20;0.20;;;19.20;99.90;;;;;;5094781;28;20089;-72
2023/09/21 12:21:26;;;;;;;0.20;0.20;;;19.30;99.90;;;;;;5094763;28;20085;-73
2023/09/21 12:23:52;;;;;;;0.20;0.20;;;19.40;99.90;;;;;;5094797;28;20039;-72
2023/09/21 12:26:18;;;;;;;0.30;0.30;;;19.50;99.90;;;;;;5094590;28;20040;-72
2023/09/21 12:28:44;;;;;;;0.28;0.28;;;19.70;99.90;;;;;;5094742;28;20055;-72
2023/09/21 12:31:10;;;;;;;0.32;0.32;;;19.80;99.90;;;;;;5094613;28;20047;-73
2023/09/21 12:33:36;;;;;;;2.50;0.30;;;19.90;99.90;;;;;;5094597;28;20463;-73
2023/09/21 12:36:05;;;;;;;0.40;0.40;;;19.90;99.90;;;;;;5094502;28;20036;-72
2023/09/21 12:38:32;;;;;;;0.30;0.30;;;20.00;99.90;;;;;;5094175;28;20036;-70
2023/09/21 12:40:59;;;;;;;0.57;0.57;;;19.90;99.90;;;;;;5094312;28;20464;-74
2023/09/21 12:43:25;;;;;;;0.22;0.22;;;19.70;99.90;;;;;;5094908;28;20036;-73
2023/09/21 12:45:50;;;;;;;0.53;0.53;;;19.60;99.90;;;;;;5094341;28;20594;-74
2023/09/21 12:48:16;;;;;;;0.30;0.30;;;19.60;99.90;;;;;;5094112;28;20040;-71
2023/09/21 12:50:42;;;;;;;0.30;0.30;;;19.60;99.90;;;;;;5094282;28;20391;-72